createdAt,value
2019-03-29T00:03:44.729Z,99391.16
2019-03-29T00:06:14.063Z,99381.81
2019-03-29T00:08:43.407Z,99388.17
2019-03-29T00:11:13.123Z,99379.92
2019-03-29T00:14:02.869Z,99377.70
2019-03-29T00:16:32.194Z,99379.36
2019-03-29T00:19:02.039Z,99378.02
2019-03-29T00:21:39.111Z,99385.16
2019-03-29T00:24:15.064Z,99372.48
2019-03-29T00:26:55.566Z,99378.28
2019-03-29T00:29:24.897Z,99374.69
2019-03-29T00:31:54.304Z,99373.91
2019-03-29T00:34:42.972Z,99385.74
2019-03-29T00:37:12.316Z,99387.41
2019-03-29T00:39:41.670Z,99386.02
2019-03-29T00:42:11.293Z,99384.94
2019-03-29T00:44:40.627Z,99392.91
2019-03-29T00:47:29.382Z,99390.18
2019-03-29T00:53:25.750Z,99389.38
2019-03-29T00:55:55.082Z,99383.35
2019-03-29T00:58:29.895Z,99380.05
2019-03-29T01:00:59.315Z,99376.48
2019-03-29T01:03:49.352Z,99374.28
2019-03-29T01:06:18.930Z,99376.48
2019-03-29T01:08:48.331Z,99377.04
2019-03-29T01:11:17.945Z,99378.70
2019-03-29T01:13:47.274Z,99375.13
2019-03-29T01:16:16.611Z,99373.48
2019-03-29T01:18:45.943Z,99368.79
2019-03-29T01:21:34.380Z,99368.80
2019-03-29T01:24:03.711Z,99367.67
2019-03-29T01:26:33.048Z,99370.42
2019-03-29T01:29:02.390Z,99369.32
2019-03-29T01:31:31.719Z,99364.36
2019-03-29T01:34:01.083Z,99357.44
2019-03-29T01:36:30.410Z,99365.41
2019-03-29T01:38:59.752Z,99366.50
2019-03-29T01:41:29.082Z,99360.70
2019-03-29T01:43:58.415Z,99361.22
2019-03-29T01:46:27.754Z,99360.36
2019-03-29T01:48:57.087Z,99361.19
2019-03-29T01:51:27.224Z,99359.02
2019-03-29T01:54:16.549Z,99362.91
2019-03-29T01:57:25.788Z,99366.24
2019-03-29T01:59:55.115Z,99363.23
2019-03-29T02:02:24.454Z,99361.84
2019-03-29T02:04:53.786Z,99358.55
2019-03-29T02:07:23.126Z,99356.09
2019-03-29T02:09:52.456Z,99359.69
2019-03-29T02:12:21.787Z,99363.28
2019-03-29T02:14:51.195Z,99360.25
2019-03-29T02:17:21.238Z,99352.02
2019-03-29T02:19:58.018Z,99350.09
2019-03-29T02:22:33.235Z,99355.05
2019-03-29T02:25:02.578Z,99341.60
2019-03-29T02:27:31.907Z,99348.16
2019-03-29T02:30:01.271Z,99350.92
2019-03-29T02:32:30.888Z,99348.19
2019-03-29T02:35:00.465Z,99343.77
2019-03-29T02:37:29.924Z,99347.06
2019-03-29T02:39:59.203Z,99341.05
2019-03-29T02:42:28.552Z,99344.33
2019-03-29T02:44:57.879Z,99341.00
2019-03-29T02:47:27.218Z,99345.67
2019-03-29T02:49:56.567Z,99344.58
2019-03-29T02:52:25.883Z,99343.50
2019-03-29T02:54:55.223Z,99342.11
2019-03-29T02:57:24.561Z,99335.23
2019-03-29T02:59:53.911Z,99344.30
2019-03-29T03:02:26.232Z,99349.53
2019-03-29T03:04:59.950Z,99342.66
2019-03-29T03:07:29.280Z,99341.00
2019-03-29T03:09:58.609Z,99340.45
2019-03-29T03:12:28.195Z,99341.84
2019-03-29T03:14:57.529Z,99337.69
2019-03-29T03:17:46.206Z,99340.16
2019-03-29T03:20:27.628Z,99331.91
2019-03-29T03:22:56.972Z,99332.73
2019-03-29T03:25:26.304Z,99328.33
2019-03-29T03:27:55.636Z,99323.94
2019-03-29T03:30:25.174Z,99322.02
2019-03-29T03:33:05.647Z,99315.41
2019-03-29T03:35:35.058Z,99316.53
2019-03-29T03:38:04.384Z,99318.67
2019-03-29T03:40:33.738Z,99316.77
2019-03-29T03:43:03.060Z,99317.89
2019-03-29T03:45:32.392Z,99321.45
2019-03-29T03:48:01.730Z,99323.37
2019-03-29T03:50:50.672Z,99327.48
2019-03-29T03:53:20.008Z,99324.42
2019-03-29T03:55:49.409Z,99328.27
2019-03-29T03:59:00.288Z,99317.02
2019-03-29T04:01:29.629Z,99321.95
2019-03-29T04:03:58.961Z,99318.69
2019-03-29T04:06:28.292Z,99315.39
2019-03-29T04:08:57.628Z,99316.19
2019-03-29T04:11:26.966Z,99318.67
2019-03-29T04:13:56.296Z,99322.78
2019-03-29T04:16:27.265Z,99318.13
2019-03-29T04:19:02.402Z,99320.88
2019-03-29T04:21:31.720Z,99321.67
2019-03-29T04:24:01.058Z,99309.86
2019-03-29T04:26:30.406Z,99319.99
2019-03-29T04:29:04.738Z,99326.58
2019-03-29T04:31:40.235Z,99324.66
2019-03-29T04:34:09.574Z,99325.50
2019-03-29T04:36:44.159Z,99329.64
2019-03-29T04:39:13.498Z,99323.86
2019-03-29T04:41:42.826Z,99325.52
2019-03-29T04:44:12.161Z,99327.11
2019-03-29T04:46:41.489Z,99321.91
2019-03-29T04:49:10.838Z,99327.38
2019-03-29T04:51:40.161Z,99324.91
2019-03-29T04:54:09.508Z,99325.69
2019-03-29T04:56:38.839Z,99322.17
2019-03-29T04:59:08.171Z,99321.05
2019-03-29T05:01:37.508Z,99319.38
2019-03-29T05:04:25.929Z,99318.29
2019-03-29T05:06:55.264Z,99322.95
2019-03-29T05:09:24.598Z,99321.30
2019-03-29T05:11:53.985Z,99324.29
2019-03-29T05:14:23.311Z,99325.66
2019-03-29T05:16:52.643Z,99324.02
2019-03-29T05:19:21.985Z,99328.66
2019-03-29T05:21:51.317Z,99330.80
2019-03-29T05:24:20.660Z,99330.29
2019-03-29T05:26:49.988Z,99334.12
2019-03-29T05:29:31.815Z,99344.56
2019-03-29T05:32:01.144Z,99336.34
2019-03-29T05:34:30.474Z,99328.71
2019-03-29T05:37:05.569Z,99328.94
2019-03-29T05:39:35.238Z,99331.19
2019-03-29T05:42:04.579Z,99330.69
2019-03-29T05:44:33.912Z,99321.06
2019-03-29T05:47:03.264Z,99326.90
2019-03-29T05:49:32.589Z,99329.37
2019-03-29T05:52:01.929Z,99329.65
2019-03-29T05:54:31.278Z,99328.30
2019-03-29T05:57:00.634Z,99331.89
2019-03-29T05:59:29.957Z,99336.58
2019-03-29T06:01:59.290Z,99337.66
2019-03-29T06:04:28.623Z,99334.09
2019-03-29T06:06:57.955Z,99328.31
2019-03-29T06:09:27.298Z,99335.22
2019-03-29T06:12:15.726Z,99335.78
2019-03-29T06:14:45.055Z,99330.55
2019-03-29T06:17:14.384Z,99334.12
2019-03-29T06:19:43.715Z,99334.41
2019-03-29T06:22:13.052Z,99334.15
2019-03-29T06:24:42.381Z,99334.69
2019-03-29T06:27:11.719Z,99328.39
2019-03-29T06:29:41.047Z,99330.31
2019-03-29T06:32:10.622Z,99331.68
2019-03-29T06:34:39.953Z,99332.52
2019-03-29T06:37:49.220Z,99326.75
2019-03-29T06:40:37.896Z,99322.33
2019-03-29T06:43:07.231Z,99325.05
2019-03-29T06:45:47.175Z,99329.44
2019-03-29T06:48:56.941Z,99328.91
2019-03-29T06:51:26.280Z,99318.48
2019-03-29T06:53:55.616Z,99325.89
2019-03-29T06:56:24.958Z,99325.89
2019-03-29T06:59:13.623Z,99321.48
2019-03-29T07:01:46.245Z,99313.16
2019-03-29T07:04:33.095Z,99320.63
2019-03-29T07:07:02.442Z,99322.82
2019-03-29T07:09:31.768Z,99324.20
2019-03-29T07:12:01.107Z,99318.64
2019-03-29T07:14:49.604Z,99317.27
2019-03-29T07:17:18.970Z,99308.64
2019-03-29T07:19:48.287Z,99315.89
2019-03-29T07:22:17.620Z,99312.00
2019-03-29T07:24:46.956Z,99308.67
2019-03-29T07:27:16.301Z,99307.52
2019-03-29T07:29:45.628Z,99308.39
2019-03-29T07:32:14.958Z,99310.70
2019-03-29T07:34:44.300Z,99311.49
2019-03-29T07:37:18.867Z,99309.15
2019-03-29T07:39:48.291Z,99309.08
2019-03-29T07:42:17.623Z,99309.69
2019-03-29T07:44:46.953Z,99310.45
2019-03-29T07:47:16.292Z,99307.28
2019-03-29T07:49:45.624Z,99304.47
2019-03-29T07:52:14.958Z,99302.39
2019-03-29T07:54:44.287Z,99303.34
2019-03-29T07:57:13.627Z,99298.33
2019-03-29T07:59:43.205Z,99302.70
2019-03-29T08:02:12.535Z,99295.06
2019-03-29T08:04:41.876Z,99296.81
2019-03-29T08:07:11.217Z,99297.76
2019-03-29T08:09:40.561Z,99295.17
2019-03-29T08:12:09.896Z,99289.16
2019-03-29T08:14:39.242Z,99284.72
2019-03-29T08:17:08.576Z,99288.66
2019-03-29T08:19:37.908Z,99284.97
2019-03-29T08:22:07.511Z,99288.73
2019-03-29T08:24:36.839Z,99295.02
2019-03-29T08:27:06.176Z,99287.26
2019-03-29T08:29:35.503Z,99288.78
2019-03-29T08:32:04.856Z,99286.56
2019-03-29T08:34:53.547Z,99283.86
2019-03-29T08:37:35.118Z,99282.74
2019-03-29T08:43:28.050Z,99288.84
2019-03-29T08:45:58.075Z,99286.14
2019-03-29T08:48:34.302Z,99282.65
2019-03-29T08:51:03.641Z,99278.70
2019-03-29T08:53:32.966Z,99280.33
2019-03-29T08:56:02.308Z,99286.58
2019-03-29T08:58:31.658Z,99275.84
2019-03-29T09:01:00.996Z,99291.73
2019-03-29T09:04:01.466Z,99287.58
2019-03-29T09:06:25.736Z,99286.38
2019-03-29T09:11:57.159Z,99283.77
2019-03-29T09:14:26.499Z,99283.86
2019-03-29T09:16:55.827Z,99274.40
2019-03-29T09:19:25.191Z,99269.66
2019-03-29T09:21:54.525Z,99275.47
2019-03-29T09:25:03.770Z,99268.05
2019-03-29T09:27:33.108Z,99271.78
2019-03-29T09:30:05.080Z,99260.52
2019-03-29T09:32:52.593Z,99263.88
2019-03-29T09:35:22.155Z,99256.67
2019-03-29T09:37:51.633Z,99256.55
2019-03-29T09:40:21.110Z,99251.69
2019-03-29T09:43:05.712Z,99248.39
2019-03-29T09:48:42.217Z,99238.74
2019-03-29T09:51:11.545Z,99236.10
2019-03-29T09:53:41.547Z,99220.32
2019-03-29T09:56:17.640Z,99230.81
2019-03-29T09:58:46.969Z,99231.95
2019-03-29T10:01:16.358Z,99232.58
2019-03-29T10:03:45.726Z,99226.55
2019-03-29T10:06:15.540Z,99220.20
2019-03-29T10:08:55.530Z,99224.65
2019-03-29T10:11:25.127Z,99226.53
2019-03-29T10:13:54.460Z,99216.25
2019-03-29T10:16:36.270Z,99214.50
2019-03-29T10:19:05.595Z,99214.50
2019-03-29T10:21:34.929Z,99201.69
2019-03-29T10:24:04.272Z,99213.92
2019-03-29T10:26:52.958Z,99190.67
2019-03-29T10:29:22.348Z,99190.67
2019-03-29T10:32:10.974Z,99203.02
2019-03-29T10:34:40.320Z,99203.02
2019-03-29T10:37:09.647Z,99192.11
2019-03-29T10:39:51.479Z,99182.66
2019-03-29T10:42:32.836Z,99182.66
2019-03-29T10:45:14.320Z,99186.81
2019-03-29T10:47:44.310Z,99186.81
2019-03-29T10:50:39.179Z,99175.87
2019-03-29T10:53:20.724Z,99188.94
2019-03-29T10:56:02.683Z,99177.87
2019-03-29T10:58:32.022Z,99177.87
2019-03-29T11:01:01.356Z,99183.83
2019-03-29T11:03:30.695Z,99171.61
2019-03-29T11:06:00.424Z,99183.48
2019-03-29T11:08:29.766Z,99179.73
2019-03-29T11:10:59.098Z,99170.52
2019-03-29T11:13:28.423Z,99170.73
2019-03-29T11:15:57.768Z,99170.97
2019-03-29T11:18:27.122Z,99168.14
2019-03-29T11:20:56.455Z,99173.42
2019-03-29T11:23:45.142Z,99171.97
2019-03-29T11:26:14.787Z,99171.61
2019-03-29T11:28:44.121Z,99171.68
2019-03-29T11:31:13.463Z,99165.11
2019-03-29T11:33:42.810Z,99154.20
2019-03-29T11:36:12.248Z,99154.20
2019-03-29T11:38:41.561Z,99152.25
2019-03-29T11:41:10.882Z,99161.30
2019-03-29T11:43:40.214Z,99152.53
2019-03-29T11:46:09.554Z,99150.47
2019-03-29T11:48:38.875Z,99153.66
2019-03-29T11:51:18.700Z,99136.61
2019-03-29T11:53:58.485Z,99135.73
2019-03-29T11:56:27.821Z,99134.53
2019-03-29T11:58:57.140Z,99141.38
2019-03-29T12:01:26.812Z,99135.04
2019-03-29T12:03:56.128Z,99136.09
2019-03-29T12:06:25.553Z,99130.10
2019-03-29T12:11:58.197Z,99118.89
2019-03-29T12:14:27.529Z,99122.61
2019-03-29T12:16:58.509Z,99127.10
2019-03-29T12:19:27.911Z,99121.60
2019-03-29T12:21:57.238Z,99115.78
2019-03-29T12:24:38.942Z,99114.53
2019-03-29T12:27:08.276Z,99105.53
2019-03-29T12:29:37.598Z,99110.69
2019-03-29T12:32:06.934Z,99098.86
2019-03-29T12:34:36.266Z,99099.52
2019-03-29T12:37:05.599Z,99099.75
2019-03-29T12:39:34.944Z,99088.50
2019-03-29T12:42:10.158Z,99099.97
2019-03-29T12:47:41.824Z,99083.48
2019-03-29T12:53:21.855Z,99079.50
2019-03-29T12:55:51.188Z,99079.30
2019-03-29T12:58:20.522Z,99068.94
2019-03-29T13:00:49.933Z,99061.34
2019-03-29T13:03:19.261Z,99058.31
2019-03-29T13:05:48.591Z,99059.04
2019-03-29T13:08:17.935Z,99053.95
2019-03-29T13:10:47.665Z,99060.04
2019-03-29T13:13:16.993Z,99059.31
2019-03-29T13:15:46.334Z,99058.56
2019-03-29T13:18:15.664Z,99058.51
2019-03-29T13:20:45.077Z,99052.22
2019-03-29T13:23:14.403Z,99051.88
2019-03-29T13:25:43.736Z,99044.50
2019-03-29T13:28:13.378Z,99042.14
2019-03-29T13:30:42.703Z,99035.88
2019-03-29T13:33:12.275Z,99034.54
2019-03-29T13:35:44.393Z,99041.12
2019-03-29T13:38:31.739Z,99025.31
2019-03-29T13:41:01.080Z,99021.55
2019-03-29T13:43:36.277Z,99022.70
2019-03-29T13:46:22.671Z,99028.76
2019-03-29T13:48:52.006Z,99033.08
2019-03-29T13:51:21.331Z,99022.23
2019-03-29T13:53:50.681Z,99021.04
2019-03-29T13:56:20.018Z,99015.28
2019-03-29T13:58:49.347Z,99022.02
2019-03-29T14:01:18.699Z,99009.02
2019-03-29T14:03:48.031Z,99011.84
2019-03-29T14:06:17.362Z,99007.43
2019-03-29T14:08:46.702Z,99011.27
2019-03-29T14:11:16.335Z,99007.51
2019-03-29T14:13:45.742Z,99007.46
2019-03-29T14:16:15.073Z,99002.94
2019-03-29T14:18:44.405Z,98998.62
2019-03-29T14:21:13.747Z,98995.98
2019-03-29T14:23:43.076Z,98986.91
2019-03-29T14:26:12.479Z,98984.14
2019-03-29T14:28:41.826Z,98990.97
2019-03-29T14:31:11.155Z,98977.57
2019-03-29T14:33:40.487Z,98984.44
2019-03-29T14:36:10.151Z,98979.70
2019-03-29T14:38:51.739Z,98975.09
2019-03-29T14:41:21.151Z,98963.98
2019-03-29T14:43:50.496Z,98968.67
2019-03-29T14:46:19.826Z,98959.84
2019-03-29T14:48:49.169Z,98962.08
2019-03-29T14:51:18.499Z,98950.97
2019-03-29T14:53:47.831Z,98954.20
2019-03-29T14:56:17.179Z,98953.38
2019-03-29T14:58:46.510Z,98945.59
2019-03-29T15:01:15.843Z,98942.77
2019-03-29T15:03:45.183Z,98923.81
2019-03-29T15:06:14.586Z,98936.00
2019-03-29T15:08:43.920Z,98936.83
2019-03-29T15:11:21.993Z,98932.80
2019-03-29T15:13:49.962Z,98931.20
2019-03-29T15:16:19.352Z,98930.41
2019-03-29T15:18:48.690Z,98928.09
2019-03-29T15:21:18.020Z,98915.84
2019-03-29T15:23:47.360Z,98918.14
2019-03-29T15:26:16.694Z,98922.97
2019-03-29T15:28:58.145Z,98918.31
2019-03-29T15:31:27.487Z,98918.00
2019-03-29T15:33:56.811Z,98912.46
2019-03-29T15:36:37.969Z,98912.06
2019-03-29T15:39:47.201Z,98905.13
2019-03-29T15:42:16.546Z,98906.27
2019-03-29T15:44:51.699Z,98911.15
2019-03-29T15:47:21.039Z,98914.55
2019-03-29T15:49:56.234Z,98914.11
2019-03-29T15:52:26.987Z,98911.34
2019-03-29T15:54:56.570Z,98906.94
2019-03-29T15:57:26.002Z,98898.13
2019-03-29T15:59:55.341Z,98908.55
2019-03-29T16:02:24.676Z,98898.14
2019-03-29T16:04:54.001Z,98897.23
2019-03-29T16:07:23.455Z,98898.95
2019-03-29T16:09:52.771Z,98887.65
2019-03-29T16:12:22.107Z,98891.30
2019-03-29T16:15:03.834Z,98896.71
2019-03-29T16:17:33.368Z,98895.59
2019-03-29T16:20:02.771Z,98900.97
2019-03-29T16:22:32.109Z,98892.52
2019-03-29T16:25:01.458Z,98890.08
2019-03-29T16:27:30.819Z,98892.45
2019-03-29T16:33:20.807Z,98893.14
2019-03-29T16:35:50.463Z,98890.20
2019-03-29T16:38:19.947Z,98883.23
2019-03-29T16:40:49.293Z,98889.32
2019-03-29T16:43:38.060Z,98880.75
2019-03-29T16:46:13.154Z,98885.58
2019-03-29T16:48:42.911Z,98885.79
2019-03-29T16:51:12.238Z,98887.82
2019-03-29T16:53:41.577Z,98890.14
2019-03-29T16:56:12.194Z,98885.63
2019-03-29T16:58:51.663Z,98886.20
2019-03-29T17:01:33.133Z,98884.05
2019-03-29T17:04:02.479Z,98881.75
2019-03-29T17:06:31.819Z,98882.53
2019-03-29T17:09:01.138Z,98883.41
2019-03-29T17:11:30.549Z,98879.27
2019-03-29T17:13:59.892Z,98883.30
2019-03-29T17:16:30.640Z,98881.35
2019-03-29T17:19:19.352Z,98878.91
2019-03-29T17:21:48.693Z,98878.55
2019-03-29T17:24:30.713Z,98886.93
2019-03-29T17:27:00.052Z,98886.93
2019-03-29T17:29:29.382Z,98887.91
2019-03-29T17:32:11.591Z,98886.62
2019-03-29T17:34:52.611Z,98886.28
2019-03-29T17:37:21.948Z,98886.28
2019-03-29T17:40:12.620Z,98889.63
2019-03-29T17:42:56.084Z,98887.17
2019-03-29T17:45:39.487Z,98871.14
2019-03-29T17:48:20.912Z,98866.06
2019-03-29T17:50:50.249Z,98866.06
2019-03-29T17:53:19.582Z,98873.56
2019-03-29T17:56:19.676Z,98879.44
2019-03-29T17:58:49.171Z,98879.44
2019-03-29T18:01:18.502Z,98847.41
2019-03-29T18:03:49.481Z,98890.42
2019-03-29T18:06:38.164Z,98890.97
2019-03-29T18:09:19.651Z,98896.56
2019-03-29T18:11:48.976Z,98896.56
2019-03-29T18:14:20.030Z,98895.91
2019-03-29T18:16:50.996Z,98906.65
2019-03-29T18:19:20.341Z,98906.65
2019-03-29T18:22:01.631Z,98901.91
2019-03-29T18:24:31.052Z,98881.32
2019-03-29T18:27:19.869Z,98887.86
2019-03-29T18:30:20.728Z,98902.09
2019-03-29T18:33:01.856Z,98891.88
2019-03-29T18:35:43.382Z,98904.47
2019-03-29T18:41:55.135Z,98883.88
2019-03-29T18:44:24.475Z,98883.88
2019-03-29T18:46:53.888Z,98908.09
2019-03-29T18:49:42.783Z,98906.38
2019-03-29T18:52:12.181Z,98906.38
2019-03-29T18:57:50.689Z,98905.92
2019-03-29T19:03:53.582Z,98914.72
2019-03-29T19:06:23.019Z,98917.91
2019-03-29T19:08:52.539Z,98910.97
2019-03-29T19:11:22.140Z,98907.14
2019-03-29T19:13:51.514Z,98910.41
2019-03-29T19:16:20.956Z,98912.70
2019-03-29T19:18:50.407Z,98910.97
2019-03-29T19:21:19.999Z,98906.23
2019-03-29T19:23:49.757Z,98912.59
2019-03-29T19:26:31.107Z,98902.69
2019-03-29T19:29:00.543Z,98902.69
2019-03-29T19:31:30.302Z,98909.19
2019-03-29T19:34:01.403Z,98903.51
2019-03-29T19:36:30.871Z,98906.42
2019-03-29T19:39:00.311Z,98899.91
2019-03-29T19:41:29.831Z,98907.75
2019-03-29T19:44:13.684Z,98911.14
2019-03-29T19:46:54.663Z,98903.75
2019-03-29T19:49:24.415Z,98903.75
2019-03-29T19:51:54.199Z,98904.58
2019-03-29T19:54:23.686Z,98901.46
2019-03-29T19:56:53.316Z,98900.08
2019-03-29T19:59:22.991Z,98905.81
2019-03-29T20:01:52.660Z,98902.41
2019-03-29T20:04:22.300Z,98908.25
2019-03-29T20:07:10.899Z,98902.34
2019-03-29T20:09:42.028Z,98902.04
2019-03-29T20:12:30.794Z,98901.90
2019-03-29T20:15:00.546Z,98909.18
2019-03-29T20:17:32.197Z,98901.52
2019-03-29T20:23:36.145Z,98906.18
2019-03-29T20:26:08.279Z,98910.42
2019-03-29T20:28:43.147Z,98908.14
2019-03-29T20:31:13.043Z,98908.49
2019-03-29T20:34:02.057Z,98911.79
2019-03-29T20:36:31.786Z,98898.94
2019-03-29T20:39:01.319Z,98913.42
2019-03-29T20:41:30.990Z,98908.87
2019-03-29T20:44:00.593Z,98908.25
2019-03-29T20:46:30.455Z,98913.63
2019-03-29T20:49:00.037Z,98912.89
2019-03-29T20:51:29.607Z,98912.99
2019-03-29T20:53:59.201Z,98911.52
2019-03-29T20:56:48.452Z,98921.09
2019-03-29T20:59:38.280Z,98912.95
2019-03-29T21:02:07.733Z,98916.70
2019-03-29T21:04:37.300Z,98906.84
2019-03-29T21:07:18.964Z,98904.29
2019-03-29T21:09:48.755Z,98899.08
2019-03-29T21:12:18.143Z,98900.88
2019-03-29T21:14:47.599Z,98905.10
2019-03-29T21:17:17.192Z,98893.83
2019-03-29T21:19:47.281Z,98888.79
2019-03-29T21:22:16.825Z,98891.75
2019-03-29T21:24:46.209Z,98897.12
2019-03-29T21:27:15.571Z,98897.86
2019-03-29T21:29:44.937Z,98896.60
2019-03-29T21:32:14.277Z,98893.31
2019-03-29T21:34:43.608Z,98887.23
2019-03-29T21:37:13.157Z,98893.66
2019-03-29T21:39:42.581Z,98891.72
2019-03-29T21:42:31.016Z,98889.83
2019-03-29T21:45:00.380Z,98881.67
2019-03-29T21:47:29.709Z,98885.83
2019-03-29T21:49:59.052Z,98886.24
2019-03-29T21:52:28.379Z,98889.69
2019-03-29T21:54:57.726Z,98878.47
2019-03-29T21:57:27.048Z,98881.66
2019-03-29T21:59:56.390Z,98878.40
2019-03-29T22:02:38.248Z,98878.13
2019-03-29T22:08:09.861Z,98876.23
2019-03-29T22:10:58.608Z,98873.42
2019-03-29T22:13:27.934Z,98876.47
2019-03-29T22:16:16.616Z,98870.09
2019-03-29T22:18:46.041Z,98864.88
2019-03-29T22:21:15.376Z,98866.61
2019-03-29T22:23:44.998Z,98861.18
2019-03-29T22:26:14.318Z,98859.00
2019-03-29T22:28:43.674Z,98859.83
2019-03-29T22:31:12.997Z,98857.63
2019-03-29T22:33:42.333Z,98855.34
2019-03-29T22:36:11.661Z,98847.44
2019-03-29T22:39:00.083Z,98855.07
2019-03-29T22:41:29.406Z,98852.11
2019-03-29T22:43:58.752Z,98842.23
2019-03-29T22:46:28.066Z,98848.84
2019-03-29T22:48:57.398Z,98846.44
2019-03-29T22:51:26.721Z,98850.80
2019-03-29T22:53:56.056Z,98851.36
2019-03-29T22:56:25.618Z,98847.84
2019-03-29T22:58:54.953Z,98852.09
2019-03-29T23:04:57.704Z,98850.10
2019-03-29T23:07:27.032Z,98848.00
2019-03-29T23:09:56.377Z,98847.77
2019-03-29T23:12:25.708Z,98849.75
2019-03-29T23:14:55.286Z,98848.23
2019-03-29T23:17:26.263Z,98843.37
2019-03-29T23:19:55.599Z,98848.08
2019-03-29T23:22:24.931Z,98844.53
2019-03-29T23:25:13.353Z,98846.27
2019-03-29T23:27:42.694Z,98846.10
2019-03-29T23:33:35.260Z,98839.84
2019-03-29T23:36:04.588Z,98836.27
2019-03-29T23:38:33.923Z,98836.40
2019-03-29T23:41:03.418Z,98837.83
2019-03-29T23:43:32.750Z,98833.72
2019-03-29T23:46:09.022Z,98842.18
2019-03-29T23:48:38.360Z,98840.88
2019-03-29T23:51:07.686Z,98839.51
2019-03-29T23:53:37.018Z,98839.28
2019-03-29T23:56:06.348Z,98841.19
2019-03-29T23:58:35.678Z,98832.94
